createdAt,value
2022-11-13T00:01:23.831Z,11.73
2022-11-13T00:04:10.786Z,11.27
2022-11-13T00:06:59.631Z,10.30
2022-11-13T00:09:45.056Z,9.85
2022-11-13T00:12:30.799Z,11.15
2022-11-13T00:15:16.367Z,8.95
2022-11-13T00:18:03.210Z,9.68
2022-11-13T00:20:48.834Z,10.07
2022-11-13T00:23:35.499Z,9.77
2022-11-13T00:26:23.265Z,8.85
2022-11-13T00:29:09.001Z,8.43
2022-11-13T00:31:54.237Z,9.02
2022-11-13T00:34:48.148Z,9.45
2022-11-13T00:37:34.202Z,9.15
2022-11-13T00:40:20.003Z,8.80
2022-11-13T00:43:05.297Z,8.55
2022-11-13T00:45:50.737Z,7.65
2022-11-13T00:48:36.670Z,8.38
2022-11-13T00:51:22.756Z,8.20
2022-11-13T00:54:08.280Z,8.20
2022-11-13T00:56:53.557Z,7.95
2022-11-13T00:59:39.105Z,7.70
2022-11-13T01:02:24.475Z,8.20
2022-11-13T01:05:10.094Z,8.45
2022-11-13T01:07:55.438Z,8.27
2022-11-13T01:10:53.121Z,7.88
2022-11-13T01:13:43.627Z,8.27
2022-11-13T01:16:29.340Z,7.70
2022-11-13T01:19:14.965Z,7.82
2022-11-13T01:22:00.413Z,7.10
2022-11-13T01:24:45.712Z,8.18
2022-11-13T01:27:31.412Z,8.23
2022-11-13T01:30:17.493Z,7.78
2022-11-13T01:33:02.907Z,8.30
2022-11-13T01:35:48.521Z,7.60
2022-11-13T01:38:37.062Z,8.65
2022-11-13T01:41:25.828Z,8.10
2022-11-13T01:44:14.341Z,7.78
2022-11-13T01:46:59.780Z,7.68
2022-11-13T01:49:46.693Z,8.25
2022-11-13T01:52:39.035Z,8.65
2022-11-13T01:55:24.858Z,11.30
2022-11-13T01:58:11.784Z,11.75
2022-11-13T02:00:57.272Z,12.18
2022-11-13T02:03:42.681Z,12.55
2022-11-13T02:06:43.929Z,13.65
2022-11-13T02:09:33.913Z,14.90
2022-11-13T02:12:25.397Z,14.07
2022-11-13T02:15:10.879Z,13.32
2022-11-13T02:18:00.078Z,14.90
2022-11-13T02:20:54.093Z,15.02
2022-11-13T02:23:49.145Z,15.50
2022-11-13T02:26:36.884Z,15.27
2022-11-13T02:29:22.441Z,14.60
2022-11-13T02:32:07.566Z,15.77
2022-11-13T02:34:52.943Z,17.73
2022-11-13T02:37:38.240Z,18.90
2022-11-13T02:40:24.946Z,16.73
2022-11-13T02:43:10.232Z,17.38
2022-11-13T02:45:55.661Z,18.00
2022-11-13T02:48:40.954Z,16.58
2022-11-13T02:51:26.779Z,18.80
2022-11-13T02:54:16.693Z,19.08
2022-11-13T02:57:02.582Z,19.50
2022-11-13T02:59:47.978Z,18.70
2022-11-13T03:02:33.370Z,19.75
2022-11-13T03:05:18.859Z,22.15
2022-11-13T03:25:34.729Z,21.77
2022-11-13T03:28:20.263Z,22.83
2022-11-13T03:31:06.097Z,25.25
2022-11-13T03:33:53.799Z,23.45
2022-11-13T03:36:39.105Z,25.90
2022-11-13T03:39:24.123Z,27.05
2022-11-13T03:42:09.371Z,24.80
2022-11-13T03:44:55.331Z,27.52
2022-11-13T03:47:40.415Z,27.25
2022-11-13T03:50:26.175Z,27.13
2022-11-13T03:53:12.118Z,26.98
2022-11-13T03:55:58.090Z,26.05
2022-11-13T03:58:48.449Z,24.98
2022-11-13T04:01:35.063Z,24.23
2022-11-13T04:04:20.858Z,25.70
2022-11-13T04:07:06.052Z,24.27
2022-11-13T04:09:51.381Z,22.40
2022-11-13T04:12:36.749Z,25.90
2022-11-13T04:15:22.222Z,28.13
2022-11-13T04:18:07.378Z,24.27
2022-11-13T04:20:52.858Z,25.48
2022-11-13T04:23:38.203Z,28.33
2022-11-13T04:26:23.657Z,28.90
2022-11-13T04:29:08.966Z,28.80
2022-11-13T04:31:54.350Z,27.15
2022-11-13T04:34:39.911Z,26.58
2022-11-13T04:37:25.086Z,25.23
2022-11-13T04:40:11.090Z,25.13
2022-11-13T04:42:56.536Z,25.20
2022-11-13T04:45:42.154Z,24.10
2022-11-13T04:48:27.534Z,23.88
2022-11-13T04:51:13.665Z,24.17
2022-11-13T04:53:59.357Z,23.75
2022-11-13T04:56:44.767Z,25.13
2022-11-13T04:59:30.199Z,22.75
2022-11-13T05:02:15.781Z,23.15
2022-11-13T05:05:04.983Z,23.27
2022-11-13T05:07:50.665Z,24.33
2022-11-13T05:10:36.903Z,23.60
2022-11-13T05:13:22.222Z,24.63
2022-11-13T05:16:09.934Z,25.88
2022-11-13T05:18:55.216Z,25.40
2022-11-13T05:21:40.563Z,25.27
2022-11-13T05:24:26.109Z,28.15
2022-11-13T05:27:15.998Z,31.85
2022-11-13T05:30:04.190Z,34.30
2022-11-13T05:32:49.579Z,31.33
2022-11-13T05:35:34.841Z,26.63
2022-11-13T05:38:20.150Z,22.05
2022-11-13T05:41:08.570Z,16.73
2022-11-13T05:43:59.176Z,14.68
2022-11-13T05:46:45.101Z,13.25
2022-11-13T05:49:30.730Z,12.02
2022-11-13T05:52:15.796Z,11.40
2022-11-13T05:55:01.160Z,11.65
2022-11-13T05:57:46.553Z,12.57
2022-11-13T06:00:31.906Z,14.18
2022-11-13T06:03:17.033Z,13.50
2022-11-13T06:06:02.726Z,16.17
2022-11-13T06:08:49.375Z,17.05
2022-11-13T06:11:34.778Z,17.58
2022-11-13T06:14:19.825Z,17.02
2022-11-13T06:17:05.243Z,14.80
2022-11-13T06:19:50.795Z,12.80
2022-11-13T06:22:36.173Z,13.18
2022-11-13T06:25:21.670Z,10.18
2022-11-13T06:28:06.930Z,8.25
2022-11-13T06:30:52.268Z,7.60
2022-11-13T06:33:38.470Z,7.53
2022-11-13T06:36:26.087Z,7.70
2022-11-13T06:39:12.347Z,8.18
2022-11-13T06:41:57.778Z,7.75
2022-11-13T06:44:43.074Z,8.02
2022-11-13T06:47:28.805Z,7.55
2022-11-13T06:50:13.707Z,7.22
2022-11-13T06:52:59.173Z,8.13
2022-11-13T06:55:49.870Z,7.75
2022-11-13T06:58:35.786Z,7.40
2022-11-13T07:01:23.517Z,7.07
2022-11-13T07:04:12.862Z,7.75
2022-11-13T07:06:58.650Z,7.10
2022-11-13T07:09:43.991Z,6.55
2022-11-13T07:12:29.403Z,8.23
2022-11-13T07:15:16.609Z,8.10
2022-11-13T07:18:02.842Z,8.77
2022-11-13T07:20:48.898Z,7.70
2022-11-13T07:23:37.037Z,8.77
2022-11-13T07:26:22.454Z,7.60
2022-11-13T07:29:07.934Z,8.98
2022-11-13T07:31:53.713Z,9.88
2022-11-13T07:34:39.299Z,8.80
2022-11-13T07:37:24.652Z,9.32
2022-11-13T07:40:11.362Z,8.50
2022-11-13T07:43:01.307Z,9.15
2022-11-13T07:45:46.503Z,8.45
2022-11-13T07:48:32.193Z,8.52
2022-11-13T07:51:18.230Z,8.57
2022-11-13T07:54:03.605Z,9.73
2022-11-13T07:56:49.044Z,9.65
2022-11-13T07:59:34.951Z,10.25
2022-11-13T08:02:26.118Z,10.27
2022-11-13T08:05:12.132Z,10.38
2022-11-13T08:07:58.305Z,9.75
2022-11-13T08:10:43.574Z,10.75
2022-11-13T08:13:29.241Z,10.25
2022-11-13T08:16:14.602Z,8.45
2022-11-13T08:18:59.842Z,9.90
2022-11-13T08:21:45.325Z,8.38
2022-11-13T08:24:30.766Z,8.68
2022-11-13T08:27:16.221Z,9.30
2022-11-13T08:30:01.848Z,8.73
2022-11-13T08:32:48.425Z,10.45
2022-11-13T08:35:33.580Z,10.38
2022-11-13T08:38:19.022Z,10.48
2022-11-13T08:41:09.371Z,9.57
2022-11-13T08:43:55.276Z,10.93
2022-11-13T08:46:41.077Z,9.63
2022-11-13T08:49:26.373Z,8.63
2022-11-13T08:52:12.103Z,9.63
2022-11-13T08:54:57.486Z,9.15
2022-11-13T08:57:43.109Z,10.27
2022-11-13T09:00:30.854Z,10.85
2022-11-13T09:03:16.437Z,10.50
2022-11-13T09:06:06.539Z,10.85
2022-11-13T09:08:51.958Z,7.85
2022-11-13T09:11:37.792Z,11.02
2022-11-13T09:14:25.104Z,10.30
2022-11-13T09:17:11.205Z,8.88
2022-11-13T09:20:00.800Z,9.15
2022-11-13T09:22:50.456Z,9.60
2022-11-13T09:25:38.180Z,9.20
2022-11-13T09:28:23.991Z,10.00
2022-11-13T09:31:10.753Z,8.90
2022-11-13T09:33:56.638Z,9.93
2022-11-13T09:36:42.509Z,12.18
2022-11-13T09:39:28.720Z,12.73
2022-11-13T09:42:23.942Z,10.73
2022-11-13T09:45:14.365Z,15.98
2022-11-13T09:48:43.475Z,17.25
2022-11-13T09:51:32.688Z,13.80
2022-11-13T09:54:19.448Z,10.57
2022-11-13T09:57:28.459Z,11.27
2022-11-13T10:00:22.388Z,10.93
2022-11-13T10:03:07.783Z,10.80
2022-11-13T10:06:21.222Z,11.48
2022-11-13T10:09:38.126Z,11.60
2022-11-13T10:12:27.468Z,9.75
2022-11-13T10:15:13.569Z,10.50
2022-11-13T10:18:08.351Z,10.25
2022-11-13T10:20:58.140Z,10.02
2022-11-13T10:23:47.958Z,7.75
2022-11-13T10:26:33.915Z,5.57
2022-11-13T10:29:20.885Z,5.45
2022-11-13T10:32:35.685Z,8.73
2022-11-13T10:35:40.010Z,9.40
2022-11-13T10:41:17.681Z,6.57
2022-11-13T10:44:18.068Z,4.28
2022-11-13T10:47:36.068Z,5.10
2022-11-13T10:50:32.335Z,4.43
2022-11-13T10:53:20.777Z,3.73
2022-11-13T10:56:33.775Z,5.13
2022-11-13T10:59:20.267Z,5.63
2022-11-13T11:02:19.818Z,4.60
2022-11-13T11:05:16.120Z,6.53
2022-11-13T11:08:01.379Z,9.73
2022-11-13T11:11:16.511Z,7.15
2022-11-13T11:14:17.343Z,8.52
2022-11-13T11:17:06.378Z,8.20
2022-11-13T11:20:33.562Z,7.63
2022-11-13T11:23:43.821Z,9.02
2022-11-13T11:26:35.148Z,9.27
2022-11-13T11:29:39.513Z,11.27
2022-11-13T11:32:32.519Z,10.52
2022-11-13T11:35:22.130Z,7.13
2022-11-13T11:38:29.662Z,9.57
2022-11-13T11:41:19.220Z,9.77
2022-11-13T11:44:18.379Z,6.97
2022-11-13T11:47:04.106Z,8.13
2022-11-13T11:49:50.050Z,8.93
2022-11-13T11:52:47.924Z,8.38
2022-11-13T11:55:54.902Z,7.15
2022-11-13T11:59:14.533Z,7.05
2022-11-13T12:02:06.307Z,8.00
2022-11-13T12:04:57.534Z,6.80
2022-11-13T12:07:49.057Z,6.30
2022-11-13T12:10:40.404Z,6.18
2022-11-13T12:13:32.694Z,6.43
2022-11-13T12:16:36.110Z,6.50
2022-11-13T12:19:24.514Z,6.13
2022-11-13T12:23:07.071Z,6.97
2022-11-13T12:26:24.403Z,6.15
2022-11-13T12:29:27.698Z,6.05
2022-11-13T12:32:15.742Z,6.57
2022-11-13T12:35:09.844Z,5.97
2022-11-13T12:37:55.810Z,5.50
2022-11-13T12:40:58.088Z,4.97
2022-11-13T12:44:02.054Z,5.90
2022-11-13T12:46:49.691Z,5.40
2022-11-13T12:49:36.689Z,6.88
2022-11-13T12:52:24.534Z,5.82
2022-11-13T12:55:32.029Z,6.35
2022-11-13T12:58:26.291Z,6.07
2022-11-13T13:01:11.791Z,6.30
2022-11-13T13:04:12.341Z,5.15
2022-11-13T13:07:23.111Z,7.93
2022-11-13T13:10:27.030Z,6.13
2022-11-13T13:13:24.007Z,5.03
2022-11-13T13:16:10.756Z,6.75
2022-11-13T13:19:28.492Z,6.10
2022-11-13T13:22:32.386Z,5.78
2022-11-13T13:25:23.854Z,5.78
2022-11-13T13:28:09.158Z,6.50
2022-11-13T13:31:19.097Z,6.28
2022-11-13T13:34:16.832Z,6.65
2022-11-13T13:37:23.481Z,4.20
2022-11-13T13:40:37.710Z,6.20
2022-11-13T13:43:44.921Z,6.80
2022-11-13T13:46:32.276Z,5.63
2022-11-13T13:49:22.045Z,5.70
2022-11-13T13:52:14.112Z,6.10
2022-11-13T13:55:02.135Z,6.18
2022-11-13T13:57:47.820Z,6.53
2022-11-13T14:00:33.914Z,6.68
2022-11-13T14:03:21.993Z,5.22
2022-11-13T14:06:20.265Z,6.85
2022-11-13T14:09:10.937Z,6.15
2022-11-13T14:12:07.890Z,6.80
2022-11-13T14:14:54.595Z,5.93
2022-11-13T14:17:40.021Z,6.47
2022-11-13T14:20:25.573Z,5.95
2022-11-13T14:23:15.366Z,7.30
2022-11-13T14:26:01.701Z,7.78
2022-11-13T14:28:58.293Z,9.25
2022-11-13T14:31:43.700Z,6.97
2022-11-13T14:34:31.063Z,6.97
2022-11-13T14:37:37.900Z,5.20
2022-11-13T14:40:32.498Z,6.43
2022-11-13T14:43:22.847Z,6.82
2022-11-13T14:46:24.473Z,7.15
2022-11-13T14:49:15.649Z,7.32
2022-11-13T14:52:01.727Z,8.93
2022-11-13T14:55:13.729Z,7.55
2022-11-13T14:57:52.792Z,7.18
2022-11-13T15:00:38.680Z,7.57
2022-11-13T15:03:25.153Z,7.28
2022-11-13T15:06:22.852Z,11.00
2022-11-13T15:09:13.589Z,8.85
2022-11-13T15:27:42.924Z,14.13
2022-11-13T15:30:29.014Z,9.35
2022-11-13T15:33:15.716Z,8.65
2022-11-13T15:36:01.683Z,9.88
2022-11-13T15:38:47.560Z,8.90
2022-11-13T15:41:34.229Z,14.18
2022-11-13T15:44:19.558Z,13.65
2022-11-13T15:47:20.185Z,11.43
2022-11-13T15:50:15.352Z,11.38
2022-11-13T15:53:05.443Z,10.30
2022-11-13T15:55:51.502Z,12.02
2022-11-13T15:58:37.172Z,13.57
2022-11-13T16:01:23.348Z,20.17
2022-11-13T16:04:09.000Z,27.38
2022-11-13T16:06:54.940Z,31.85
2022-11-13T16:09:40.413Z,25.60
2022-11-13T16:12:25.815Z,34.63
2022-11-13T16:15:14.783Z,31.85
2022-11-13T16:18:01.214Z,36.78
2022-11-13T16:20:46.289Z,32.40
2022-11-13T16:23:31.969Z,28.35
2022-11-13T16:26:26.139Z,26.63
2022-11-13T16:29:19.372Z,21.90
2022-11-13T16:32:04.630Z,19.10
2022-11-13T16:34:50.190Z,16.92
2022-11-13T16:37:36.029Z,16.38
2022-11-13T16:40:25.549Z,17.55
2022-11-13T16:43:11.461Z,19.00
2022-11-13T16:46:00.401Z,17.17
2022-11-13T16:48:46.580Z,20.60
2022-11-13T16:51:31.632Z,20.40
2022-11-13T16:54:17.040Z,20.27
2022-11-13T16:57:02.684Z,19.42
2022-11-13T16:59:47.902Z,17.88
2022-11-13T17:02:33.480Z,17.70
2022-11-13T17:05:20.291Z,19.02
2022-11-13T17:08:06.097Z,20.27
2022-11-13T17:10:58.595Z,19.65
2022-11-13T17:13:44.640Z,18.77
2022-11-13T17:16:31.827Z,18.98
2022-11-13T17:19:16.872Z,16.25
2022-11-13T17:22:02.226Z,17.45
2022-11-13T17:24:47.828Z,17.98
2022-11-13T17:27:33.061Z,16.90
2022-11-13T17:30:18.468Z,18.08
2022-11-13T17:33:03.619Z,18.48
2022-11-13T17:35:56.612Z,18.80
2022-11-13T17:38:42.074Z,19.52
2022-11-13T17:41:27.405Z,20.05
2022-11-13T17:44:12.948Z,20.05
2022-11-13T17:46:58.483Z,21.48
2022-11-13T17:49:44.101Z,25.17
2022-11-13T17:52:29.486Z,22.85
2022-11-13T17:55:14.957Z,22.17
2022-11-13T17:58:01.115Z,23.95
2022-11-13T18:00:46.550Z,24.88
2022-11-13T18:03:32.349Z,23.73
2022-11-13T18:06:20.113Z,26.42
2022-11-13T18:09:06.581Z,99.00
2022-11-13T18:11:52.614Z,39.70
2022-11-13T18:14:38.212Z,28.30
2022-11-13T18:17:24.330Z,26.52
2022-11-13T18:20:10.381Z,28.70
2022-11-13T18:22:57.013Z,29.90
2022-11-13T18:25:42.467Z,28.33
2022-11-13T18:28:27.858Z,28.20
2022-11-13T18:31:17.822Z,32.28
2022-11-13T18:34:05.666Z,28.33
2022-11-13T18:36:51.319Z,29.48
2022-11-13T18:39:37.200Z,30.27
2022-11-13T18:42:25.609Z,29.85
2022-11-13T18:45:12.034Z,29.55
2022-11-13T18:47:58.082Z,28.13
2022-11-13T18:50:55.235Z,28.20
2022-11-13T18:53:44.126Z,27.40
2022-11-13T18:56:33.890Z,28.02
2022-11-13T18:59:19.868Z,25.13
2022-11-13T19:02:05.940Z,31.00
2022-11-13T19:04:51.548Z,27.40
2022-11-13T19:07:36.975Z,27.27
2022-11-13T19:10:22.725Z,23.83
2022-11-13T19:13:11.546Z,25.10
2022-11-13T19:15:58.441Z,24.40
2022-11-13T19:18:51.285Z,24.77
2022-11-13T19:21:37.781Z,22.75
2022-11-13T19:24:26.109Z,23.67
2022-11-13T19:27:11.973Z,24.08
2022-11-13T19:29:57.782Z,25.58
2022-11-13T19:32:43.334Z,24.23
2022-11-13T19:35:28.923Z,24.08
2022-11-13T19:38:14.630Z,25.13
2022-11-13T19:41:00.052Z,25.75
2022-11-13T19:43:45.507Z,24.60
2022-11-13T19:46:32.189Z,22.77
2022-11-13T19:49:17.286Z,23.10
2022-11-13T19:52:02.858Z,25.08
2022-11-13T19:54:48.083Z,23.42
2022-11-13T19:57:33.388Z,24.05
2022-11-13T20:00:19.223Z,24.77
2022-11-13T20:03:07.574Z,23.48
2022-11-13T20:06:01.159Z,24.95
2022-11-13T20:08:46.721Z,24.70
2022-11-13T20:11:32.876Z,23.52
2022-11-13T20:14:18.179Z,24.55
2022-11-13T20:17:03.786Z,25.15
2022-11-13T20:19:49.815Z,27.63
2022-11-13T20:22:35.807Z,25.58
2022-11-13T20:25:22.030Z,24.08
2022-11-13T20:28:07.441Z,23.23
2022-11-13T20:31:03.180Z,24.25
2022-11-13T20:33:53.733Z,23.77
2022-11-13T20:36:39.178Z,23.23
2022-11-13T20:39:24.764Z,24.77
2022-11-13T20:42:10.134Z,24.08
2022-11-13T20:45:00.005Z,22.92
2022-11-13T20:47:46.755Z,22.38
2022-11-13T20:50:33.722Z,21.27
2022-11-13T20:53:19.365Z,20.92
2022-11-13T20:56:07.690Z,21.73
2022-11-13T20:58:53.723Z,23.38
2022-11-13T21:01:39.610Z,20.90
2022-11-13T21:04:25.167Z,22.58
2022-11-13T21:07:10.417Z,21.67
2022-11-13T21:09:55.982Z,21.90
2022-11-13T21:12:41.464Z,22.50
2022-11-13T21:15:27.583Z,21.90
2022-11-13T21:18:13.239Z,21.52
2022-11-13T21:21:10.782Z,20.38
2022-11-13T21:23:57.723Z,21.23
2022-11-13T21:26:43.564Z,21.20
2022-11-13T21:29:28.742Z,21.67
2022-11-13T21:32:14.077Z,22.00
2022-11-13T21:34:59.445Z,26.60
2022-11-13T21:37:44.975Z,24.85
2022-11-13T21:40:31.322Z,24.02
2022-11-13T21:43:17.127Z,25.92
2022-11-13T21:46:06.406Z,30.15
2022-11-13T21:49:10.206Z,32.47
2022-11-13T21:51:55.641Z,42.63
2022-11-13T21:54:41.630Z,43.95
2022-11-13T21:57:27.273Z,37.20
2022-11-13T22:00:13.400Z,37.42
2022-11-13T22:02:59.376Z,36.70
2022-11-13T22:05:45.638Z,36.67
2022-11-13T22:08:31.729Z,38.95
2022-11-13T22:11:17.163Z,36.42
2022-11-13T22:14:03.620Z,37.58
2022-11-13T22:16:49.202Z,40.30
2022-11-13T22:19:36.336Z,45.05
2022-11-13T22:22:22.049Z,43.78
2022-11-13T22:25:07.631Z,43.80
2022-11-13T22:27:53.509Z,43.60
2022-11-13T22:30:38.663Z,40.28
2022-11-13T22:33:27.875Z,37.30
2022-11-13T22:36:35.620Z,38.67
2022-11-13T22:39:21.356Z,35.33
2022-11-13T22:42:21.601Z,38.00
2022-11-13T22:45:22.727Z,33.33
2022-11-13T22:48:11.442Z,29.55
2022-11-13T22:51:04.491Z,29.52
2022-11-13T22:53:55.304Z,25.85
2022-11-13T22:56:41.752Z,26.67
2022-11-13T22:59:27.276Z,24.33
2022-11-13T23:02:12.652Z,26.15
2022-11-13T23:04:58.241Z,26.92
2022-11-13T23:07:43.513Z,25.30
2022-11-13T23:10:29.008Z,25.60
2022-11-13T23:13:14.232Z,26.02
2022-11-13T23:16:01.725Z,26.15
2022-11-13T23:18:47.574Z,30.95
2022-11-13T23:21:33.151Z,33.50
2022-11-13T23:24:18.747Z,37.65
2022-11-13T23:27:04.003Z,39.10
2022-11-13T23:29:50.453Z,41.55
2022-11-13T23:32:36.339Z,38.75
2022-11-13T23:35:21.897Z,36.75
2022-11-13T23:38:07.695Z,35.72
2022-11-13T23:40:58.189Z,40.85
2022-11-13T23:49:34.253Z,57.17
2022-11-13T23:52:19.677Z,61.30
2022-11-13T23:55:05.850Z,64.63
2022-11-13T23:57:59.535Z,73.72
